AirNav   Pilot Hours Calculator
 
 1028 users online  

CD18 Amax Mill Heliport
Dillon/Silverthorne, Colorado, USA

GOING TO DILLON/SILVERTHORNE?


FAA INFORMATION EFFECTIVE 08 SEPTEMBER 2022

Location

FAA Identifier: CD18
Lat/Long: 39-49-59.9490N 106-04-02.0710W
39-49.999150N 106-04.034517W
39.8333192,-106.0672419
(estimated)
Elevation: 9176 ft. / 2797 m (estimated)
Variation: 12E (1985)
From city: 12 miles SW of central business district of the associated city
Time zone: UTC -6 (UTC -7 during Standard Time)
Zip code: 80468

Heliport Operations

Heliport use: Private use. Permission required prior to landing
Activation date: 01/1988
Control tower: no
ARTCC: DENVER CENTER
FSS: DENVER FLIGHT SERVICE STATION
Attendance: UNATNDD
Wind indicator: yes
Segmented circle: no

Heliport Communications

WX AWOS-3PT at GNB (17 nm NE): 119.925 (970-887-1803)
WX AWOS-3 at 20V (19 nm NW): 118.425 (970-724-9659)

Nearby radio navigation aids

VOR radial/distance  VOR name  Freq  Var
RLGr106/20.0KREMMLING VOR/DME113.8014E

Heliport Services

Runway Information

Helipad H1

Dimensions: 100 x 100 ft. / 30 x 30 m
Surface: asphalt
Traffic pattern: leftleft

Heliport Ownership and Management from official FAA records

Ownership: Privately-owned
Owner: CENTURYLINK
9666 METRO AIRPORT AVE
BROOMFIELD, CO 80012
Phone (303) 643-4972
Manager: DARREN ALMSKOG
9666 METRO AIRPORT AVE
BROOMFIELD, CO 80012
Phone (303) 304-9960
DARREN ALMSKOG 303-304-9960 DARREN.ALMSKOG@CENTURYLINK.COM

Additional Remarks

FOR CD CTC DENVER ARTCC AT 303-651-4257.

Instrument Procedures

There are no published instrument procedures at CD18.

Some nearby airports with instrument procedures:

KGNB - Granby-Grand County Airport (17 nm NE)
20V - Mc Elroy Airfield (19 nm NW)
KLXV - Lake County Airport (39 nm S)
KEGE - Eagle County Regional Airport (41 nm W)
KBJC - Rocky Mountain Metro Airport (44 nm E)
 
Loc | Ops | Rwys | IFR | FBO | Links
Com | Nav | Svcs | Stats | Notes

AirBoss

 
Area around CD18 (Amax Mill Heliport)
 
Road maps at: MapQuest Bing Google
 
Aerial photo
No photo
 
Sectional chart

 
Airport distance calculator
Flying to Amax Mill Heliport? Find the distance to fly.

From to CD18

Sunrise and sunset
Times for 24-Sep-2022
 Local
(UTC-6)
 Zulu
(UTC)
Morning civil twilight06:2812:28
Sunrise06:5512:55
Sunset18:5800:58
Evening civil twilight19:2501:25

Current date and time
Zulu (UTC)  24-Sep-2022 22:07:39
Local (UTC-6)  24-Sep-2022 16:07:39
 
METAR
K0CO 
14nm E 
242155Z AUTO 34010G26KT 321V041 10SM CLR 07/M07 A3065 RMK AO2
KGNB 
17nm NE 
242154Z AUTO 29013G18KT 10SM CLR 20/M08 A3041 RMK AO2 T02031082
K20V 
19nm NW 
242154Z AUTO 31006G14KT 10SM CLR 23/M04 A3037 RMK AO2
KCCU 
22nm S 
242155Z AUTO 29012G21KT 10SM CLR 12/M08 A3066 RMK AO2
TAF
KEGE 
41nm W 
242001Z 2420/2518 VRB03KT P6SM SKC FM242100 24010G15KT P6SM SKC FM250200 VRB03KT P6SM SKC
NOTAMs
Click for the latest NOTAMs
NOTAMs are issued by the DoD/FAA and will open in a separate window not controlled by AirNav.

 

 
 

Would you like to see your business listed on this page?

 If your business provides an interesting product or service to pilots, flight crews, aircraft, or users of the Amax Mill Heliport, you should consider listing it here.  To start the listing process, click on the button below
 
Add a business
 

Other Pages about Amax Mill Heliport

Update a link
 
Copyright © AirNav, LLC. All rights reserved. Privacy Policy  Contact